createdAt,value
2022-08-23T00:02:26.788Z,62.69
2022-08-23T00:05:08.184Z,56.86
2022-08-23T00:07:41.105Z,58.70
2022-08-23T00:10:11.833Z,57.28
2022-08-23T00:12:40.055Z,57.86
2022-08-23T00:15:11.057Z,58.76
2022-08-23T00:17:40.124Z,62.53
2022-08-23T00:20:10.190Z,63.45
2022-08-23T00:22:40.383Z,56.17
2022-08-23T00:25:13.533Z,57.08
2022-08-23T00:27:41.741Z,59.70
2022-08-23T00:30:12.644Z,61.71
2022-08-23T00:32:41.513Z,59.10
2022-08-23T00:35:11.677Z,58.64
2022-08-23T00:37:39.483Z,57.24
2022-08-23T00:40:11.396Z,61.10
2022-08-23T00:43:10.231Z,57.08
2022-08-23T00:46:03.115Z,61.90
2022-08-23T00:48:32.991Z,55.66
2022-08-23T00:51:10.270Z,59.15
2022-08-23T00:53:43.491Z,57.54
2022-08-23T00:56:13.810Z,55.00
2022-08-23T00:58:43.119Z,55.43
2022-08-23T01:01:10.844Z,56.68
2022-08-23T01:03:42.804Z,56.55
2022-08-23T01:06:31.087Z,56.96
2022-08-23T01:09:03.254Z,58.27
2022-08-23T01:11:38.264Z,57.12
2022-08-23T01:14:18.175Z,62.87
2022-08-23T01:17:09.338Z,62.87
2022-08-23T01:19:47.609Z,64.75
2022-08-23T01:22:30.603Z,62.48
2022-08-23T01:25:07.345Z,64.08
2022-08-23T01:27:38.787Z,62.93
2022-08-23T01:30:12.158Z,56.97
2022-08-23T01:32:47.232Z,57.51
2022-08-23T01:35:17.088Z,57.80
2022-08-23T01:37:46.085Z,58.42
2022-08-23T01:40:14.900Z,61.06
2022-08-23T01:42:42.959Z,56.89
2022-08-23T01:45:13.969Z,61.87
2022-08-23T01:47:42.384Z,61.17
2022-08-23T01:50:13.269Z,57.86
2022-08-23T01:52:46.663Z,66.72
2022-08-23T01:55:15.643Z,59.91
2022-08-23T01:57:47.780Z,59.03
2022-08-23T02:00:18.785Z,59.74
2022-08-23T02:02:47.333Z,62.63
2022-08-23T02:05:17.486Z,64.23
2022-08-23T02:07:48.608Z,58.14
2022-08-23T02:10:18.124Z,63.50
2022-08-23T02:12:47.034Z,60.25
2022-08-23T02:15:35.483Z,58.54
2022-08-23T02:18:03.227Z,59.57
2022-08-23T02:20:31.307Z,56.26
2022-08-23T02:22:59.200Z,55.93
2022-08-23T02:25:27.510Z,59.63
2022-08-23T02:27:55.374Z,61.32
2022-08-23T02:30:23.264Z,55.74
2022-08-23T02:32:51.483Z,55.77
2022-08-23T02:35:19.618Z,56.43
2022-08-23T02:37:47.419Z,62.98
2022-08-23T02:40:16.926Z,57.37
2022-08-23T02:42:44.690Z,56.03
2022-08-23T02:45:13.479Z,54.98
2022-08-23T02:47:45.370Z,56.23
2022-08-23T02:50:13.764Z,61.62
2022-08-23T02:52:41.556Z,55.19
2022-08-23T02:55:10.244Z,56.22
2022-08-23T02:57:40.311Z,58.86
2022-08-23T03:00:14.465Z,59.15
2022-08-23T03:02:43.261Z,55.62
2022-08-23T03:05:13.451Z,55.58
2022-08-23T03:07:42.022Z,54.12
2022-08-23T03:10:11.122Z,53.94
2022-08-23T03:12:39.814Z,57.92
2022-08-23T03:15:08.711Z,55.02
2022-08-23T03:17:36.583Z,58.24
2022-08-23T03:20:07.051Z,58.74
2022-08-23T03:22:35.014Z,58.40
2022-08-23T03:25:02.848Z,53.70
2022-08-23T03:27:33.215Z,53.30
2022-08-23T03:30:09.025Z,53.17
2022-08-23T03:32:49.050Z,52.44
2022-08-23T03:35:17.788Z,57.28
2022-08-23T03:37:46.700Z,52.99
2022-08-23T03:40:15.485Z,52.23
2022-08-23T03:42:46.367Z,51.46
2022-08-23T03:45:17.086Z,55.75
2022-08-23T03:47:47.272Z,50.88
2022-08-23T03:53:01.504Z,54.19
2022-08-23T03:55:29.867Z,49.80
2022-08-23T03:57:58.079Z,49.14
2022-08-23T04:00:26.162Z,48.69
2022-08-23T04:02:54.654Z,48.80
2022-08-23T04:05:23.842Z,51.75
2022-08-23T04:07:52.214Z,47.83
2022-08-23T04:10:21.530Z,47.31
2022-08-23T04:12:50.196Z,46.84
2022-08-23T04:15:19.935Z,49.22
2022-08-23T04:17:48.475Z,46.84
2022-08-23T04:20:16.933Z,46.03
2022-08-23T04:22:52.936Z,45.58
2022-08-23T04:25:34.295Z,45.71
2022-08-23T04:28:04.161Z,44.80
2022-08-23T04:30:33.759Z,44.84
2022-08-23T04:33:02.052Z,44.32
2022-08-23T04:35:30.655Z,44.38
2022-08-23T04:37:58.852Z,44.42
2022-08-23T04:40:45.559Z,44.31
2022-08-23T04:43:14.381Z,44.57
2022-08-23T04:45:42.504Z,44.47
2022-08-23T04:48:12.186Z,44.64
2022-08-23T04:50:42.806Z,44.45
2022-08-23T04:53:12.180Z,44.25
2022-08-23T04:55:41.202Z,44.41
2022-08-23T04:58:09.226Z,44.29
2022-08-23T05:00:38.414Z,43.96
2022-08-23T05:03:06.967Z,43.80
2022-08-23T05:05:34.926Z,43.27
2022-08-23T05:08:03.368Z,43.21
2022-08-23T05:10:31.787Z,42.73
2022-08-23T05:13:02.117Z,42.53
2022-08-23T05:15:30.038Z,42.35
2022-08-23T05:17:59.630Z,42.08
2022-08-23T05:20:28.284Z,41.98
2022-08-23T05:22:56.115Z,41.75
2022-08-23T05:25:24.869Z,41.64
2022-08-23T05:27:57.120Z,41.61
2022-08-23T05:30:25.347Z,41.62
2022-08-23T05:32:55.114Z,41.47
2022-08-23T05:35:22.925Z,41.02
2022-08-23T05:37:51.033Z,40.71
2022-08-23T05:40:19.021Z,40.35
2022-08-23T05:42:49.525Z,39.86
2022-08-23T05:45:21.152Z,39.54
2022-08-23T05:47:50.271Z,39.25
2022-08-23T05:50:19.482Z,38.30
2022-08-23T05:52:51.102Z,37.83
2022-08-23T05:55:20.132Z,37.49
2022-08-23T05:57:51.889Z,37.22
2022-08-23T06:00:21.362Z,37.53
2022-08-23T06:02:56.606Z,37.18
2022-08-23T06:05:24.537Z,36.97
2022-08-23T06:07:52.319Z,36.76
2022-08-23T06:10:21.819Z,36.67
2022-08-23T06:12:50.511Z,36.55
2022-08-23T06:15:18.472Z,36.14
2022-08-23T06:17:49.288Z,35.65
2022-08-23T06:20:17.387Z,35.71
2022-08-23T06:22:48.124Z,34.89
2022-08-23T06:25:16.020Z,34.83
2022-08-23T06:27:44.106Z,34.38
2022-08-23T06:30:13.410Z,33.76
2022-08-23T06:32:46.892Z,34.09
2022-08-23T06:35:37.604Z,33.39
2022-08-23T06:38:07.370Z,33.92
2022-08-23T06:40:42.194Z,33.47
2022-08-23T06:43:11.791Z,32.01
2022-08-23T06:45:48.417Z,33.22
2022-08-23T06:48:26.690Z,32.51
2022-08-23T06:50:54.942Z,32.71
2022-08-23T06:53:24.748Z,32.93
2022-08-23T06:55:55.131Z,33.47
2022-08-23T06:58:23.256Z,33.48
2022-08-23T07:00:54.270Z,33.33
2022-08-23T07:03:25.703Z,32.59
2022-08-23T07:05:54.692Z,31.71
2022-08-23T07:08:22.716Z,31.38
2022-08-23T07:10:50.966Z,31.15
2022-08-23T07:13:19.094Z,30.44
2022-08-23T07:15:49.997Z,30.12
2022-08-23T07:18:18.860Z,30.04
2022-08-23T07:20:46.715Z,30.69
2022-08-23T07:23:15.899Z,29.99
2022-08-23T07:25:44.233Z,29.57
2022-08-23T07:28:14.601Z,29.96
2022-08-23T07:30:45.323Z,27.38
2022-08-23T07:33:14.150Z,29.16
2022-08-23T07:35:54.120Z,28.25
2022-08-23T07:38:22.491Z,28.15
2022-08-23T07:40:59.009Z,27.80
2022-08-23T07:43:27.190Z,28.65
2022-08-23T07:45:56.267Z,28.76
2022-08-23T07:48:50.372Z,25.39
2022-08-23T07:51:15.026Z,29.53
2022-08-23T07:53:45.877Z,24.45
2022-08-23T07:56:17.649Z,27.62
2022-08-23T07:58:53.210Z,30.07
2022-08-23T08:01:27.938Z,30.13
2022-08-23T08:03:58.398Z,30.77
2022-08-23T08:06:30.770Z,30.23
2022-08-23T08:09:00.174Z,30.55
2022-08-23T08:11:34.514Z,30.94
2022-08-23T08:14:07.648Z,31.34
2022-08-23T08:16:39.610Z,31.18
2022-08-23T08:19:10.907Z,30.76
2022-08-23T08:21:45.681Z,30.71
2022-08-23T08:24:16.877Z,30.84
2022-08-23T08:26:46.164Z,30.48
2022-08-23T08:29:15.274Z,30.66
2022-08-23T08:31:47.318Z,30.33
2022-08-23T08:34:18.512Z,26.97
2022-08-23T08:36:50.686Z,31.36
2022-08-23T08:39:27.350Z,28.50
2022-08-23T08:42:09.364Z,31.82
2022-08-23T08:45:09.889Z,31.19
2022-08-23T08:47:46.969Z,30.75
2022-08-23T08:50:24.545Z,31.77
2022-08-23T08:53:02.505Z,29.74
2022-08-23T08:55:39.268Z,31.76
2022-08-23T08:58:14.583Z,31.41
2022-08-23T09:00:43.803Z,30.64
2022-08-23T09:03:15.348Z,30.61
2022-08-23T09:05:51.035Z,29.66
2022-08-23T09:08:24.848Z,31.37
2022-08-23T09:11:14.283Z,31.16
2022-08-23T09:14:24.302Z,30.17
2022-08-23T09:17:05.547Z,29.13
2022-08-23T09:19:37.782Z,29.33
2022-08-23T09:22:13.813Z,27.23
2022-08-23T09:24:42.775Z,29.35
2022-08-23T09:27:11.814Z,29.04
2022-08-23T09:29:51.308Z,28.43
2022-08-23T09:32:33.362Z,26.05
2022-08-23T09:35:21.433Z,28.41
2022-08-23T09:38:20.577Z,26.11
2022-08-23T09:40:51.043Z,28.46
2022-08-23T09:43:28.025Z,27.75
2022-08-23T09:46:01.437Z,27.53
2022-08-23T09:48:36.736Z,27.22
2022-08-23T09:51:37.704Z,27.83
2022-08-23T09:54:29.069Z,24.22
2022-08-23T09:57:06.426Z,24.46
2022-08-23T09:59:46.216Z,26.32
2022-08-23T10:02:28.769Z,26.62
2022-08-23T10:04:59.976Z,26.77
2022-08-23T10:07:34.203Z,26.75
2022-08-23T10:10:31.874Z,25.35
2022-08-23T10:13:02.348Z,23.18
2022-08-23T10:15:59.570Z,22.81
2022-08-23T10:18:51.455Z,20.33
2022-08-23T10:21:26.230Z,21.16
2022-08-23T10:24:10.717Z,21.74
2022-08-23T10:27:00.498Z,24.49
2022-08-23T10:29:42.645Z,25.17
2022-08-23T10:32:35.861Z,22.32
2022-08-23T10:35:26.186Z,24.14
2022-08-23T10:38:31.060Z,26.86
2022-08-23T10:41:21.333Z,22.87
2022-08-23T10:43:50.695Z,22.38
2022-08-23T10:46:22.974Z,22.40
2022-08-23T10:48:59.668Z,25.85
2022-08-23T10:51:36.724Z,20.89
2022-08-23T10:54:34.841Z,21.98
2022-08-23T10:57:06.670Z,24.88
2022-08-23T10:59:39.278Z,24.58
2022-08-23T11:02:14.741Z,21.37
2022-08-23T11:05:03.767Z,23.65
2022-08-23T11:07:34.696Z,20.79
2022-08-23T11:10:06.354Z,25.75
2022-08-23T11:13:00.654Z,23.74
2022-08-23T11:15:46.587Z,22.88
2022-08-23T11:18:31.319Z,25.41
2022-08-23T11:21:06.923Z,25.45
2022-08-23T11:23:43.363Z,26.07
2022-08-23T11:26:56.736Z,20.34
2022-08-23T11:29:24.938Z,28.20
2022-08-23T11:31:57.150Z,25.41
2022-08-23T11:34:45.356Z,20.21
2022-08-23T11:37:19.651Z,24.24
2022-08-23T11:39:59.859Z,25.03
2022-08-23T11:42:40.699Z,24.24
2022-08-23T11:45:30.736Z,23.08
2022-08-23T11:48:14.039Z,21.73
2022-08-23T11:51:04.525Z,27.81
2022-08-23T11:53:47.641Z,22.13
2022-08-23T11:56:30.553Z,22.34
2022-08-23T11:59:18.510Z,25.95
2022-08-23T12:01:47.287Z,25.01
2022-08-23T12:04:37.865Z,28.39
2022-08-23T12:07:12.996Z,26.17
2022-08-23T12:09:41.036Z,26.22
2022-08-23T12:12:24.908Z,24.69
2022-08-23T12:15:03.039Z,24.40
2022-08-23T12:17:34.086Z,25.43
2022-08-23T12:20:27.198Z,24.96
2022-08-23T12:23:02.803Z,28.84
2022-08-23T12:25:32.321Z,25.79
2022-08-23T12:28:30.231Z,26.69
2022-08-23T12:31:15.943Z,25.42
2022-08-23T12:34:07.531Z,26.41
2022-08-23T12:37:12.079Z,27.44
2022-08-23T12:39:49.092Z,26.23
2022-08-23T12:42:25.480Z,29.56
2022-08-23T12:45:21.109Z,28.93
2022-08-23T12:47:59.272Z,29.11
2022-08-23T12:50:33.374Z,30.54
2022-08-23T12:53:06.278Z,28.90
2022-08-23T12:55:38.125Z,29.17
2022-08-23T12:58:08.481Z,26.59
2022-08-23T13:00:43.483Z,29.10
2022-08-23T13:03:24.100Z,30.65
2022-08-23T13:06:05.991Z,31.60
2022-08-23T13:08:38.536Z,29.91
2022-08-23T13:11:08.847Z,30.72
2022-08-23T13:13:42.386Z,29.51
2022-08-23T13:16:38.484Z,30.62
2022-08-23T13:19:25.234Z,29.74
2022-08-23T13:22:20.476Z,28.82
2022-08-23T13:25:27.381Z,31.31
2022-08-23T13:27:57.299Z,29.71
2022-08-23T13:30:32.163Z,30.53
2022-08-23T13:33:09.048Z,29.63
2022-08-23T13:35:49.613Z,31.96
2022-08-23T13:38:22.347Z,29.15
2022-08-23T13:41:00.720Z,32.30
2022-08-23T13:43:40.341Z,29.19
2022-08-23T13:46:28.353Z,29.54
2022-08-23T13:49:29.521Z,30.38
2022-08-23T13:52:18.701Z,30.56
2022-08-23T13:54:50.851Z,29.49
2022-08-23T13:57:22.160Z,29.56
2022-08-23T13:59:51.767Z,29.69
2022-08-23T14:02:21.759Z,29.73
2022-08-23T14:04:50.141Z,32.45
2022-08-23T14:07:18.515Z,28.97
2022-08-23T14:09:46.507Z,30.02
2022-08-23T14:12:22.010Z,31.60
2022-08-23T14:14:50.586Z,30.71
2022-08-23T14:17:20.502Z,33.21
2022-08-23T14:22:37.393Z,33.04
2022-08-23T14:25:07.019Z,31.82
2022-08-23T14:27:35.763Z,32.17
2022-08-23T14:30:06.107Z,33.02
2022-08-23T14:32:34.017Z,31.81
2022-08-23T14:35:01.882Z,31.40
2022-08-23T14:40:18.795Z,30.09
2022-08-23T14:42:48.412Z,31.82
2022-08-23T14:45:17.808Z,33.88
2022-08-23T14:47:45.634Z,31.59
2022-08-23T14:50:15.218Z,34.08
2022-08-23T14:55:33.031Z,34.25
2022-08-23T14:58:01.115Z,34.49
2022-08-23T15:00:28.998Z,33.12
2022-08-23T15:02:57.606Z,35.40
2022-08-23T15:05:25.399Z,32.95
2022-08-23T15:07:53.123Z,35.41
2022-08-23T15:13:27.030Z,34.52
2022-08-23T15:15:57.953Z,32.52
2022-08-23T15:18:26.116Z,35.74
2022-08-23T15:20:56.548Z,34.78
2022-08-23T15:23:24.776Z,34.45
2022-08-23T15:25:52.858Z,33.96
2022-08-23T15:28:22.475Z,35.83
2022-08-23T15:30:51.797Z,36.28
2022-08-23T15:36:08.713Z,35.81
2022-08-23T15:38:37.423Z,35.75
2022-08-23T15:41:06.233Z,36.77
2022-08-23T15:43:36.348Z,36.56
2022-08-23T15:46:07.100Z,35.88
2022-08-23T15:48:51.207Z,37.76
2022-08-23T15:51:19.864Z,37.11
2022-08-23T15:53:48.488Z,39.73
2022-08-23T15:56:20.455Z,37.86
2022-08-23T15:58:49.034Z,39.57
2022-08-23T16:01:21.712Z,39.75
2022-08-23T16:03:52.411Z,38.96
2022-08-23T16:06:20.568Z,38.03
2022-08-23T16:08:52.747Z,37.37
2022-08-23T16:11:21.741Z,37.46
2022-08-23T16:13:53.667Z,37.70
2022-08-23T16:16:32.402Z,37.84
2022-08-23T16:19:01.000Z,39.77
2022-08-23T16:21:30.712Z,40.62
2022-08-23T16:23:59.208Z,39.78
2022-08-23T16:26:34.895Z,39.33
2022-08-23T16:29:09.181Z,39.24
2022-08-23T16:31:40.093Z,40.82
2022-08-23T16:34:11.711Z,41.29
2022-08-23T16:36:41.743Z,40.53
2022-08-23T16:39:14.088Z,40.83
2022-08-23T16:41:41.920Z,41.46
2022-08-23T16:44:09.691Z,41.70
2022-08-23T16:46:41.311Z,41.52
2022-08-23T16:49:11.371Z,41.68
2022-08-23T16:51:39.613Z,42.04
2022-08-23T16:54:10.091Z,42.36
2022-08-23T16:56:40.255Z,43.20
2022-08-23T16:59:10.528Z,43.20
2022-08-23T17:01:57.593Z,42.69
2022-08-23T17:04:30.238Z,44.61
2022-08-23T17:06:59.195Z,43.72
2022-08-23T17:09:29.077Z,43.54
2022-08-23T17:11:58.906Z,44.27
2022-08-23T17:14:27.374Z,45.55
2022-08-23T17:16:55.609Z,44.18
2022-08-23T17:19:23.548Z,44.73
2022-08-23T17:21:51.906Z,45.44
2022-08-23T17:24:19.714Z,43.97
2022-08-23T17:26:47.687Z,44.93
2022-08-23T17:29:15.928Z,46.21
2022-08-23T17:31:46.431Z,45.43
2022-08-23T17:34:14.294Z,46.85
2022-08-23T17:36:51.182Z,45.38
2022-08-23T17:39:22.643Z,45.54
2022-08-23T17:41:51.403Z,46.68
2022-08-23T17:44:20.603Z,47.17
2022-08-23T17:46:49.143Z,45.96
2022-08-23T17:49:18.394Z,45.39
2022-08-23T17:51:46.727Z,43.08
2022-08-23T17:54:15.912Z,42.95
2022-08-23T17:56:50.013Z,46.37
2022-08-23T17:59:20.033Z,49.59
2022-08-23T18:01:49.487Z,46.38
2022-08-23T18:04:17.926Z,50.15
2022-08-23T18:06:46.270Z,47.69
2022-08-23T18:09:14.576Z,45.75
2022-08-23T18:11:42.867Z,47.85
2022-08-23T18:14:11.211Z,44.50
2022-08-23T18:16:39.788Z,49.18
2022-08-23T18:19:11.282Z,47.12
2022-08-23T18:21:42.417Z,46.71
2022-08-23T18:24:11.441Z,46.70
2022-08-23T18:27:16.924Z,49.32
2022-08-23T18:29:51.644Z,49.51
2022-08-23T18:32:19.943Z,47.85
2022-08-23T18:34:47.892Z,51.10
2022-08-23T18:37:22.092Z,48.57
2022-08-23T18:39:50.422Z,48.57
2022-08-23T18:42:18.792Z,50.10
2022-08-23T18:44:46.725Z,47.66
2022-08-23T18:47:15.044Z,50.66
2022-08-23T18:49:43.698Z,48.78
2022-08-23T18:52:11.571Z,52.29
2022-08-23T18:54:39.484Z,53.18
2022-08-23T18:57:07.622Z,55.25
2022-08-23T18:59:46.908Z,55.68
2022-08-23T19:02:15.433Z,51.87
2022-08-23T19:04:43.673Z,54.67
2022-08-23T19:07:11.690Z,54.61
2022-08-23T19:09:40.123Z,54.50
2022-08-23T19:12:08.496Z,51.70
2022-08-23T19:14:36.751Z,55.66
2022-08-23T19:17:08.385Z,49.10
2022-08-23T19:19:36.464Z,55.94
2022-08-23T19:22:05.133Z,55.09
2022-08-23T19:24:33.091Z,52.96
2022-08-23T19:27:00.955Z,54.00
2022-08-23T19:29:29.141Z,53.99
2022-08-23T19:31:57.038Z,53.13
2022-08-23T19:34:24.940Z,51.16
2022-08-23T19:37:00.691Z,54.05
2022-08-23T19:39:30.427Z,57.66
2022-08-23T19:41:58.813Z,56.90
2022-08-23T19:44:28.463Z,55.28
2022-08-23T19:46:56.565Z,52.79
2022-08-23T19:49:24.895Z,52.63
2022-08-23T19:51:55.307Z,56.06
2022-08-23T19:54:23.304Z,56.84
2022-08-23T19:56:58.358Z,58.10
2022-08-23T19:59:32.220Z,56.70
2022-08-23T20:02:00.687Z,55.90
2022-08-23T20:04:31.298Z,59.54
2022-08-23T20:07:00.614Z,54.21
2022-08-23T20:09:31.843Z,53.61
2022-08-23T20:11:59.876Z,59.52
2022-08-23T20:14:31.575Z,59.40
2022-08-23T20:17:00.709Z,54.85
2022-08-23T20:19:28.863Z,57.63
2022-08-23T20:22:16.556Z,55.88
2022-08-23T20:24:51.550Z,58.72
2022-08-23T20:27:25.472Z,59.87
2022-08-23T20:30:03.023Z,54.10
2022-08-23T20:32:31.587Z,58.77
2022-08-23T20:37:46.155Z,57.01
2022-08-23T20:40:14.901Z,59.80
2022-08-23T20:42:42.939Z,61.24
2022-08-23T20:45:10.989Z,58.15
2022-08-23T20:47:41.507Z,63.38
2022-08-23T20:50:09.452Z,60.07
2022-08-23T20:52:37.315Z,60.20
2022-08-23T20:55:06.193Z,56.99
2022-08-23T20:57:39.166Z,62.37
2022-08-23T21:00:08.292Z,62.39
2022-08-23T21:02:36.381Z,58.30
2022-08-23T21:05:06.576Z,60.58
2022-08-23T21:10:20.595Z,59.88
2022-08-23T21:12:49.236Z,61.63
2022-08-23T21:15:17.014Z,60.48
2022-08-23T21:17:47.680Z,62.20
2022-08-23T21:20:16.153Z,59.34
2022-08-23T21:22:43.872Z,62.36
2022-08-23T21:25:11.677Z,59.90
2022-08-23T21:27:39.820Z,56.94
2022-08-23T21:30:09.852Z,63.18
2022-08-23T21:32:37.633Z,60.19
2022-08-23T21:35:05.924Z,61.00
2022-08-23T21:37:35.627Z,56.95
2022-08-23T21:40:04.129Z,64.31
2022-08-23T21:42:32.397Z,63.33
2022-08-23T21:45:00.505Z,59.16
2022-08-23T21:47:30.856Z,61.00
2022-08-23T21:49:59.043Z,65.88
2022-08-23T21:52:26.998Z,64.65
2022-08-23T21:54:54.783Z,60.65
2022-08-23T21:57:22.905Z,64.40
2022-08-23T21:59:50.644Z,64.59
2022-08-23T22:02:19.583Z,62.71
2022-08-23T22:04:48.024Z,63.73
2022-08-23T22:07:15.801Z,60.59
2022-08-23T22:09:43.565Z,60.60
2022-08-23T22:12:11.752Z,63.70
2022-08-23T22:14:41.928Z,60.44
2022-08-23T22:17:09.753Z,66.39
2022-08-23T22:19:37.845Z,60.16
2022-08-23T22:22:06.377Z,66.44
2022-08-23T22:24:34.103Z,66.92
2022-08-23T22:27:02.274Z,65.08
2022-08-23T22:29:30.113Z,64.47
2022-08-23T22:31:58.069Z,65.76
2022-08-23T22:34:26.370Z,66.00
2022-08-23T22:36:55.843Z,59.86
2022-08-23T22:39:23.925Z,58.61
2022-08-23T22:41:52.093Z,66.28
2022-08-23T22:44:19.878Z,66.35
2022-08-23T22:46:48.153Z,64.96
2022-08-23T22:49:16.658Z,66.99
2022-08-23T22:51:44.855Z,66.24
2022-08-23T22:54:13.267Z,65.43
2022-08-23T22:56:49.583Z,66.35
2022-08-23T22:59:20.129Z,58.81
2022-08-23T23:01:52.744Z,61.49
2022-08-23T23:04:23.299Z,58.14
2022-08-23T23:06:52.401Z,57.66
2022-08-23T23:09:20.482Z,61.25
2022-08-23T23:11:48.641Z,60.90
2022-08-23T23:14:19.359Z,58.99
2022-08-23T23:16:49.578Z,58.05
2022-08-23T23:19:37.405Z,61.09
2022-08-23T23:22:07.704Z,58.72
2022-08-23T23:24:38.868Z,57.94
2022-08-23T23:27:07.627Z,58.73
2022-08-23T23:29:36.114Z,59.19
2022-08-23T23:32:04.250Z,57.50
2022-08-23T23:34:32.025Z,63.81
2022-08-23T23:37:00.237Z,61.03
2022-08-23T23:39:28.872Z,56.72
2022-08-23T23:41:57.563Z,59.46
2022-08-23T23:44:31.265Z,56.98
2022-08-23T23:47:01.757Z,57.61
2022-08-23T23:49:33.077Z,60.48
2022-08-23T23:52:05.910Z,61.10
2022-08-23T23:54:34.166Z,58.66
2022-08-23T23:57:03.156Z,57.80
2022-08-23T23:59:31.000Z,57.75
